createdAt,value
2023-05-23T00:00:33.697Z,100.00
2023-05-23T00:03:14.964Z,100.00
2023-05-23T00:05:41.848Z,100.00
2023-05-23T00:08:08.751Z,100.00
2023-05-23T00:10:38.081Z,100.00
2023-05-23T00:13:08.333Z,100.00
2023-05-23T00:15:41.634Z,100.00
2023-05-23T00:18:17.480Z,100.00
2023-05-23T00:20:45.656Z,100.00
2023-05-23T00:23:22.408Z,100.00
2023-05-23T00:26:00.883Z,100.00
2023-05-23T00:28:30.457Z,100.00
2023-05-23T00:30:57.294Z,100.00
2023-05-23T00:33:33.452Z,100.00
2023-05-23T00:36:12.317Z,100.00
2023-05-23T00:38:39.627Z,100.00
2023-05-23T00:41:11.333Z,100.00
2023-05-23T00:43:38.226Z,100.00
2023-05-23T00:46:10.020Z,100.00
2023-05-23T00:48:38.630Z,100.00
2023-05-23T00:51:10.776Z,100.00
2023-05-23T00:53:40.643Z,100.00
2023-05-23T00:56:07.830Z,100.00
2023-05-23T00:58:37.337Z,100.00
2023-05-23T01:01:08.260Z,100.00
2023-05-23T01:03:35.056Z,100.00
2023-05-23T01:06:02.447Z,100.00
2023-05-23T01:08:32.220Z,100.00
2023-05-23T01:11:10.718Z,100.00
2023-05-23T01:13:56.305Z,100.00
2023-05-23T01:16:48.555Z,100.00
2023-05-23T01:20:09.108Z,100.00
2023-05-23T01:23:04.940Z,100.00
2023-05-23T01:26:18.716Z,100.00
2023-05-23T01:28:56.633Z,100.00
2023-05-23T01:31:32.340Z,100.00
2023-05-23T01:33:59.326Z,100.00
2023-05-23T01:36:33.587Z,100.00
2023-05-23T01:39:03.201Z,100.00
2023-05-23T01:41:33.591Z,100.00
2023-05-23T01:44:03.317Z,100.00
2023-05-23T01:46:44.314Z,100.00
2023-05-23T01:49:15.687Z,100.00
2023-05-23T01:51:49.998Z,100.00
2023-05-23T01:54:21.708Z,100.00
2023-05-23T01:56:54.479Z,100.00
2023-05-23T01:59:21.304Z,100.00
2023-05-23T02:01:48.228Z,100.00
2023-05-23T02:04:18.588Z,100.00
2023-05-23T02:06:46.572Z,100.00
2023-05-23T02:09:13.995Z,100.00
2023-05-23T02:11:40.622Z,100.00
2023-05-23T02:14:07.776Z,100.00
2023-05-23T02:16:36.505Z,100.00
2023-05-23T02:19:11.790Z,100.00
2023-05-23T02:21:47.588Z,100.00
2023-05-23T02:24:14.617Z,100.00
2023-05-23T02:26:44.540Z,100.00
2023-05-23T02:29:11.503Z,100.00
2023-05-23T02:31:41.341Z,100.00
2023-05-23T02:34:08.191Z,100.00
2023-05-23T02:36:37.156Z,100.00
2023-05-23T02:39:08.011Z,100.00
2023-05-23T02:41:34.766Z,100.00
2023-05-23T02:44:05.858Z,100.00
2023-05-23T02:46:35.850Z,100.00
2023-05-23T02:49:08.845Z,100.00
2023-05-23T02:51:36.139Z,100.00
2023-05-23T02:54:06.223Z,100.00
2023-05-23T02:56:32.923Z,100.00
2023-05-23T02:59:07.257Z,100.00
2023-05-23T03:01:40.757Z,100.00
2023-05-23T03:04:07.822Z,100.00
2023-05-23T03:06:36.930Z,100.00
2023-05-23T03:09:06.498Z,100.00
2023-05-23T03:11:33.273Z,100.00
2023-05-23T03:14:03.243Z,100.00
2023-05-23T03:16:33.241Z,100.00
2023-05-23T03:19:21.795Z,100.00
2023-05-23T03:21:50.316Z,100.00
2023-05-23T03:24:17.046Z,100.00
2023-05-23T03:26:44.018Z,100.00
2023-05-23T03:29:11.321Z,100.00
2023-05-23T03:31:44.088Z,100.00
2023-05-23T03:34:10.787Z,100.00
2023-05-23T03:36:39.257Z,100.00
2023-05-23T03:39:11.602Z,100.00
2023-05-23T03:41:44.386Z,100.00
2023-05-23T03:44:11.330Z,100.00
2023-05-23T03:46:39.646Z,100.00
2023-05-23T03:49:09.080Z,100.00
2023-05-23T03:51:35.695Z,100.00
2023-05-23T03:54:02.492Z,100.00
2023-05-23T03:56:29.230Z,100.00
2023-05-23T03:58:55.897Z,100.00
2023-05-23T04:01:22.866Z,100.00
2023-05-23T04:03:55.822Z,100.00
2023-05-23T04:06:23.346Z,100.00
2023-05-23T04:08:50.001Z,100.00
2023-05-23T04:11:19.750Z,100.00
2023-05-23T04:13:49.606Z,100.00
2023-05-23T04:16:16.632Z,100.00
2023-05-23T04:18:43.461Z,100.00
2023-05-23T04:21:15.997Z,100.00
2023-05-23T04:23:42.694Z,100.00
2023-05-23T04:26:13.047Z,100.00
2023-05-23T04:28:48.734Z,100.00
2023-05-23T04:31:15.862Z,100.00
2023-05-23T04:33:42.928Z,100.00
2023-05-23T04:36:11.774Z,100.00
2023-05-23T04:38:42.379Z,100.00
2023-05-23T04:41:10.322Z,100.00
2023-05-23T04:43:46.189Z,100.00
2023-05-23T04:46:13.946Z,100.00
2023-05-23T04:48:40.689Z,100.00
2023-05-23T04:51:11.418Z,100.00
2023-05-23T04:53:41.308Z,100.00
2023-05-23T04:56:11.014Z,100.00
2023-05-23T04:58:37.841Z,100.00
2023-05-23T05:01:08.702Z,100.00
2023-05-23T05:03:38.196Z,100.00
2023-05-23T05:06:08.473Z,100.00
2023-05-23T05:08:41.073Z,100.00
2023-05-23T05:11:09.249Z,100.00
2023-05-23T05:13:38.134Z,100.00
2023-05-23T05:16:08.404Z,100.00
2023-05-23T05:18:42.562Z,100.00
2023-05-23T05:21:09.574Z,100.00
2023-05-23T05:23:38.671Z,100.00
2023-05-23T05:26:17.859Z,100.00
2023-05-23T05:28:44.708Z,100.00
2023-05-23T05:31:15.512Z,100.00
2023-05-23T05:33:46.015Z,100.00
2023-05-23T05:36:18.463Z,100.00
2023-05-23T05:38:50.036Z,100.00
2023-05-23T05:41:20.254Z,100.00
2023-05-23T05:43:50.337Z,100.00
2023-05-23T05:46:17.286Z,100.00
2023-05-23T05:48:51.758Z,100.00
2023-05-23T05:51:18.624Z,100.00
2023-05-23T05:53:46.401Z,100.00
2023-05-23T05:56:15.967Z,100.00
2023-05-23T05:58:43.355Z,100.00
2023-05-23T06:01:12.620Z,100.00
2023-05-23T06:03:41.682Z,100.00
2023-05-23T06:06:09.105Z,100.00
2023-05-23T06:08:41.616Z,100.00
2023-05-23T06:11:08.432Z,100.00
2023-05-23T06:13:52.008Z,100.00
2023-05-23T06:16:18.901Z,100.00
2023-05-23T06:18:45.620Z,100.00
2023-05-23T06:21:12.425Z,100.00
2023-05-23T06:23:48.233Z,100.00
2023-05-23T06:26:15.173Z,100.00
2023-05-23T06:28:45.108Z,100.00
2023-05-23T06:31:12.447Z,100.00
2023-05-23T06:33:39.218Z,100.00
2023-05-23T06:36:08.561Z,100.00
2023-05-23T06:38:38.371Z,100.00
2023-05-23T06:41:08.665Z,100.00
2023-05-23T06:46:22.638Z,100.00
2023-05-23T06:48:54.251Z,100.00
2023-05-23T06:51:26.125Z,100.00
2023-05-23T06:54:07.886Z,100.00
2023-05-23T06:56:38.867Z,100.00
2023-05-23T06:59:16.765Z,100.00
2023-05-23T07:01:51.421Z,100.00
2023-05-23T07:04:20.589Z,100.00
2023-05-23T07:06:54.970Z,100.00
2023-05-23T07:09:22.166Z,100.00
2023-05-23T07:11:48.857Z,100.00
2023-05-23T07:14:17.572Z,100.00
2023-05-23T07:16:44.464Z,100.00
2023-05-23T07:19:13.700Z,100.00
2023-05-23T07:21:46.732Z,100.00
2023-05-23T07:24:13.506Z,100.00
2023-05-23T07:26:40.898Z,100.00
2023-05-23T07:29:07.856Z,100.00
2023-05-23T07:31:34.828Z,100.00
2023-05-23T07:34:02.771Z,100.00
2023-05-23T07:36:48.410Z,100.00
2023-05-23T07:39:24.400Z,100.00
2023-05-23T07:41:51.408Z,100.00
2023-05-23T07:44:23.298Z,100.00
2023-05-23T07:46:52.021Z,100.00
2023-05-23T07:49:19.245Z,100.00
2023-05-23T07:51:48.274Z,100.00
2023-05-23T07:54:16.482Z,100.00
2023-05-23T07:56:45.307Z,100.00
2023-05-23T07:59:14.708Z,100.00
2023-05-23T08:01:47.105Z,100.00
2023-05-23T08:04:14.071Z,100.00
2023-05-23T08:07:00.773Z,100.00
2023-05-23T08:09:31.617Z,100.00
2023-05-23T08:11:58.552Z,100.00
2023-05-23T08:14:38.749Z,100.00
2023-05-23T08:17:16.443Z,100.00
2023-05-23T08:19:45.037Z,100.00
2023-05-23T08:22:14.674Z,100.00
2023-05-23T08:24:46.978Z,100.00
2023-05-23T08:27:13.768Z,100.00
2023-05-23T08:29:49.724Z,100.00
2023-05-23T08:32:19.632Z,100.00
2023-05-23T08:34:49.571Z,100.00
2023-05-23T08:37:16.467Z,100.00
2023-05-23T08:39:49.271Z,100.00
2023-05-23T08:42:16.296Z,100.00
2023-05-23T08:44:43.676Z,100.00
2023-05-23T08:47:15.248Z,100.00
2023-05-23T08:49:49.663Z,100.00
2023-05-23T08:52:24.965Z,100.00
2023-05-23T08:54:57.428Z,100.00
2023-05-23T08:57:25.034Z,100.00
2023-05-23T08:59:56.884Z,100.00
2023-05-23T09:02:25.066Z,100.00
2023-05-23T09:05:01.213Z,100.00
2023-05-23T09:07:31.554Z,100.00
2023-05-23T09:10:01.455Z,100.00
2023-05-23T09:12:28.233Z,100.00
2023-05-23T09:15:02.449Z,100.00
2023-05-23T09:17:29.083Z,100.00
2023-05-23T09:19:55.858Z,100.00
2023-05-23T09:22:29.170Z,100.00
2023-05-23T09:24:57.961Z,100.00
2023-05-23T09:27:24.949Z,100.00
2023-05-23T09:29:51.726Z,100.00
2023-05-23T09:32:25.831Z,100.00
2023-05-23T09:35:07.323Z,100.00
2023-05-23T09:37:43.318Z,100.00
2023-05-23T09:40:18.654Z,100.00
2023-05-23T09:42:49.816Z,100.00
2023-05-23T09:45:17.332Z,100.00
2023-05-23T09:47:56.588Z,100.00
2023-05-23T09:50:36.352Z,100.00
2023-05-23T09:53:03.265Z,100.00
2023-05-23T09:55:33.598Z,100.00
2023-05-23T09:58:04.954Z,100.00
2023-05-23T10:00:33.160Z,100.00
2023-05-23T10:03:14.271Z,100.00
2023-05-23T10:06:06.719Z,100.00
2023-05-23T10:08:58.723Z,100.00
2023-05-23T10:11:34.770Z,100.00
2023-05-23T10:14:11.500Z,100.00
2023-05-23T10:17:06.762Z,100.00
2023-05-23T10:20:08.631Z,100.00
2023-05-23T10:22:38.379Z,100.00
2023-05-23T10:25:10.539Z,100.00
2023-05-23T10:27:39.885Z,100.00
2023-05-23T10:30:11.392Z,100.00
2023-05-23T10:32:43.832Z,100.00
2023-05-23T10:35:52.083Z,100.00
2023-05-23T10:38:52.047Z,100.00
2023-05-23T10:41:58.322Z,100.00
2023-05-23T10:44:29.701Z,100.00
2023-05-23T10:47:06.515Z,100.00
2023-05-23T10:49:54.831Z,100.00
2023-05-23T10:52:28.031Z,100.00
2023-05-23T10:54:56.597Z,100.00
2023-05-23T10:57:29.968Z,100.00
2023-05-23T10:59:57.513Z,100.00
2023-05-23T11:02:29.663Z,100.00
2023-05-23T11:05:24.728Z,100.00
2023-05-23T11:08:17.780Z,100.00
2023-05-23T11:11:02.313Z,100.00
2023-05-23T11:13:57.067Z,100.00
2023-05-23T11:16:47.231Z,100.00
2023-05-23T11:19:20.394Z,100.00
2023-05-23T11:22:02.565Z,100.00
2023-05-23T11:24:59.893Z,100.00
2023-05-23T11:27:38.080Z,100.00
2023-05-23T11:30:18.555Z,100.00
2023-05-23T11:32:56.455Z,100.00
2023-05-23T11:35:23.877Z,100.00
2023-05-23T11:37:51.394Z,100.00
2023-05-23T11:40:34.760Z,100.00
2023-05-23T11:43:12.265Z,100.00
2023-05-23T11:45:46.192Z,100.00
2023-05-23T11:48:19.828Z,100.00
2023-05-23T11:51:01.016Z,100.00
2023-05-23T11:53:35.289Z,100.00
2023-05-23T11:56:03.560Z,100.00
2023-05-23T11:58:40.074Z,100.00
2023-05-23T12:01:13.825Z,100.00
2023-05-23T12:03:55.281Z,100.00
2023-05-23T12:06:27.591Z,100.00
2023-05-23T12:09:00.218Z,100.00
2023-05-23T12:11:27.678Z,100.00
2023-05-23T12:17:00.050Z,100.00
2023-05-23T12:19:27.568Z,100.00
2023-05-23T12:22:12.732Z,100.00
2023-05-23T12:27:41.847Z,100.00
2023-05-23T12:30:16.740Z,100.00
2023-05-23T12:32:58.358Z,100.00
2023-05-23T12:35:26.237Z,100.00
2023-05-23T12:37:59.503Z,100.00
2023-05-23T12:40:26.608Z,100.00
2023-05-23T12:42:57.392Z,100.00
2023-05-23T12:45:37.922Z,100.00
2023-05-23T12:48:09.355Z,100.00
2023-05-23T12:50:36.954Z,100.00
2023-05-23T12:53:07.955Z,100.00
2023-05-23T12:55:34.835Z,100.00
2023-05-23T12:58:01.538Z,100.00
2023-05-23T13:00:28.189Z,100.00
2023-05-23T13:02:58.093Z,100.00
2023-05-23T13:05:25.005Z,100.00
2023-05-23T13:07:52.005Z,100.00
2023-05-23T13:10:21.601Z,100.00
2023-05-23T13:12:52.064Z,100.00
2023-05-23T13:15:19.139Z,100.00
2023-05-23T13:17:50.177Z,100.00
2023-05-23T13:20:17.760Z,94.52
2023-05-23T13:22:44.613Z,96.45
2023-05-23T13:25:12.221Z,95.17
2023-05-23T13:27:39.252Z,93.47
2023-05-23T13:30:12.631Z,96.47
2023-05-23T13:32:41.496Z,95.75
2023-05-23T13:35:13.246Z,92.63
2023-05-23T13:37:40.419Z,87.62
2023-05-23T13:40:19.527Z,91.08
2023-05-23T13:42:52.104Z,91.28
2023-05-23T13:45:22.503Z,96.18
2023-05-23T13:47:55.139Z,96.09
2023-05-23T13:50:21.944Z,100.00
2023-05-23T13:53:00.561Z,96.07
2023-05-23T13:55:27.609Z,97.93
2023-05-23T14:00:39.220Z,94.25
2023-05-23T14:03:10.243Z,93.85
2023-05-23T14:05:37.450Z,93.87
2023-05-23T14:08:14.072Z,97.64
2023-05-23T14:10:44.097Z,98.87
2023-05-23T14:13:19.794Z,97.64
2023-05-23T14:15:46.692Z,92.96
2023-05-23T14:18:14.824Z,92.13
2023-05-23T14:20:47.865Z,87.55
2023-05-23T14:23:20.756Z,89.44
2023-05-23T14:25:47.383Z,86.59
2023-05-23T14:28:14.545Z,87.77
2023-05-23T14:30:41.266Z,88.58
2023-05-23T14:33:10.591Z,96.38
2023-05-23T14:35:39.861Z,98.78
2023-05-23T14:38:12.583Z,95.32
2023-05-23T14:40:39.268Z,92.91
2023-05-23T14:43:09.495Z,91.68
2023-05-23T14:45:37.067Z,95.16
2023-05-23T14:48:09.802Z,95.46
2023-05-23T14:50:40.662Z,93.12
2023-05-23T14:53:28.768Z,92.94
2023-05-23T14:56:02.360Z,88.82
2023-05-23T14:58:32.660Z,90.94
2023-05-23T15:00:59.697Z,86.80
2023-05-23T15:03:27.108Z,83.08
2023-05-23T15:06:06.863Z,89.60
2023-05-23T15:08:38.552Z,83.85
2023-05-23T15:11:09.755Z,85.78
2023-05-23T15:13:41.626Z,87.94
2023-05-23T15:16:08.566Z,88.16
2023-05-23T15:18:41.347Z,89.51
2023-05-23T15:21:14.604Z,92.67
2023-05-23T15:23:41.682Z,89.33
2023-05-23T15:26:08.573Z,90.46
2023-05-23T15:28:35.381Z,88.74
2023-05-23T15:31:08.216Z,86.88
2023-05-23T15:33:34.954Z,91.82
2023-05-23T15:36:08.131Z,93.24
2023-05-23T15:38:34.848Z,89.02
2023-05-23T15:41:08.826Z,83.77
2023-05-23T15:43:45.155Z,88.61
2023-05-23T15:46:12.097Z,93.76
2023-05-23T15:48:41.724Z,89.60
2023-05-23T15:51:14.514Z,91.47
2023-05-23T15:53:59.225Z,95.88
2023-05-23T15:56:34.594Z,96.18
2023-05-23T15:59:07.695Z,97.65
2023-05-23T16:01:59.672Z,96.62
2023-05-23T16:04:46.491Z,99.61
2023-05-23T16:07:19.556Z,97.98
2023-05-23T16:09:46.232Z,100.00
2023-05-23T16:12:14.869Z,96.74
2023-05-23T16:14:44.198Z,97.43
2023-05-23T16:17:11.004Z,98.17
2023-05-23T16:19:38.094Z,94.14
2023-05-23T16:22:08.178Z,95.12
2023-05-23T16:24:35.225Z,97.67
2023-05-23T16:27:06.327Z,94.54
2023-05-23T16:29:35.366Z,97.61
2023-05-23T16:32:02.408Z,92.63
2023-05-23T16:34:29.695Z,96.34
2023-05-23T16:36:59.352Z,96.43
2023-05-23T16:39:26.054Z,96.89
2023-05-23T16:42:00.714Z,97.51
2023-05-23T16:44:27.785Z,98.35
2023-05-23T16:46:57.603Z,99.65
2023-05-23T16:49:24.286Z,99.00
2023-05-23T16:51:51.104Z,100.00
2023-05-23T16:54:17.909Z,100.00
2023-05-23T16:56:44.579Z,99.63
2023-05-23T16:59:11.520Z,100.00
2023-05-23T17:01:49.980Z,100.00
2023-05-23T17:04:20.571Z,100.00
2023-05-23T17:07:08.210Z,100.00
2023-05-23T17:09:42.929Z,100.00
2023-05-23T17:12:10.099Z,100.00
2023-05-23T17:14:41.615Z,100.00
2023-05-23T17:17:08.336Z,100.00
2023-05-23T17:19:51.400Z,100.00
2023-05-23T17:22:26.822Z,100.00
2023-05-23T17:25:07.800Z,100.00
2023-05-23T17:27:37.063Z,100.00
2023-05-23T17:30:27.730Z,100.00
2023-05-23T17:32:57.954Z,100.00
2023-05-23T17:35:29.880Z,100.00
2023-05-23T17:38:11.861Z,100.00
2023-05-23T17:40:43.422Z,100.00
2023-05-23T17:43:13.240Z,100.00
2023-05-23T17:45:45.702Z,100.00
2023-05-23T17:48:16.640Z,100.00
2023-05-23T17:50:45.169Z,100.00
2023-05-23T17:56:00.271Z,100.00
2023-05-23T17:58:27.254Z,100.00
2023-05-23T18:01:02.790Z,100.00
2023-05-23T18:03:30.895Z,100.00
2023-05-23T18:06:00.743Z,100.00
2023-05-23T18:08:30.283Z,100.00
2023-05-23T18:11:00.373Z,100.00
2023-05-23T18:13:27.425Z,100.00
2023-05-23T18:16:02.127Z,100.00
2023-05-23T18:18:34.821Z,100.00
2023-05-23T18:21:02.863Z,100.00
2023-05-23T18:23:29.829Z,100.00
2023-05-23T18:25:59.908Z,100.00
2023-05-23T18:28:26.987Z,100.00
2023-05-23T18:31:00.678Z,100.00
2023-05-23T18:33:27.865Z,100.00
2023-05-23T18:36:13.080Z,100.00
2023-05-23T18:38:41.684Z,100.00
2023-05-23T18:41:13.201Z,100.00
2023-05-23T18:43:42.727Z,100.00
2023-05-23T18:46:13.244Z,100.00
2023-05-23T18:48:43.101Z,100.00
2023-05-23T18:51:14.405Z,100.00
2023-05-23T18:53:44.166Z,100.00
2023-05-23T18:56:14.213Z,100.00
2023-05-23T18:58:45.407Z,100.00
2023-05-23T19:01:21.912Z,100.00
2023-05-23T19:03:50.658Z,100.00
2023-05-23T19:06:17.571Z,100.00
2023-05-23T19:08:44.382Z,100.00
2023-05-23T19:11:11.263Z,100.00
2023-05-23T19:13:41.549Z,100.00
2023-05-23T19:16:13.209Z,100.00
2023-05-23T19:18:40.759Z,100.00
2023-05-23T19:21:16.508Z,100.00
2023-05-23T19:23:45.215Z,100.00
2023-05-23T19:26:13.565Z,100.00
2023-05-23T19:31:22.030Z,100.00
2023-05-23T19:33:50.678Z,100.00
2023-05-23T19:36:21.340Z,100.00
2023-05-23T19:38:48.255Z,100.00
2023-05-23T19:41:15.102Z,100.00
2023-05-23T19:43:41.761Z,100.00
2023-05-23T19:46:11.666Z,100.00
2023-05-23T19:48:39.111Z,100.00
2023-05-23T19:51:13.660Z,100.00
2023-05-23T19:53:47.447Z,100.00
2023-05-23T19:56:16.664Z,100.00
2023-05-23T19:58:46.204Z,100.00
2023-05-23T20:01:13.256Z,100.00
2023-05-23T20:03:39.951Z,100.00
2023-05-23T20:06:06.815Z,100.00
2023-05-23T20:08:33.580Z,100.00
2023-05-23T20:11:03.118Z,100.00
2023-05-23T20:13:31.617Z,100.00
2023-05-23T20:15:58.610Z,100.00
2023-05-23T20:18:28.311Z,100.00
2023-05-23T20:20:57.854Z,100.00
2023-05-23T20:23:24.640Z,100.00
2023-05-23T20:25:51.791Z,100.00
2023-05-23T20:28:23.651Z,100.00
2023-05-23T20:30:56.750Z,100.00
2023-05-23T20:33:23.659Z,100.00
2023-05-23T20:36:12.096Z,100.00
2023-05-23T20:38:39.255Z,100.00
2023-05-23T20:41:10.459Z,100.00
2023-05-23T20:43:37.879Z,100.00
2023-05-23T20:46:19.596Z,100.00
2023-05-23T20:48:46.406Z,100.00
2023-05-23T20:51:13.489Z,100.00
2023-05-23T20:53:40.547Z,100.00
2023-05-23T20:56:16.240Z,100.00
2023-05-23T20:58:45.943Z,100.00
2023-05-23T21:01:17.106Z,100.00
2023-05-23T21:03:44.108Z,100.00
2023-05-23T21:06:17.711Z,100.00
2023-05-23T21:08:47.417Z,100.00
2023-05-23T21:11:17.177Z,100.00
2023-05-23T21:13:47.529Z,100.00
2023-05-23T21:16:17.122Z,100.00
2023-05-23T21:18:45.699Z,100.00
2023-05-23T21:21:15.832Z,100.00
2023-05-23T21:23:42.611Z,100.00
2023-05-23T21:26:09.409Z,100.00
2023-05-23T21:28:36.076Z,100.00
2023-05-23T21:31:15.181Z,100.00
2023-05-23T21:33:42.140Z,100.00
2023-05-23T21:36:08.901Z,100.00
2023-05-23T21:38:37.480Z,100.00
2023-05-23T21:41:07.506Z,100.00
2023-05-23T21:43:36.627Z,100.00
2023-05-23T21:46:09.143Z,100.00
2023-05-23T21:48:35.921Z,100.00
2023-05-23T21:51:05.860Z,100.00
2023-05-23T21:53:35.886Z,100.00
2023-05-23T21:56:08.594Z,100.00
2023-05-23T21:58:35.419Z,100.00
2023-05-23T22:01:07.601Z,100.00
2023-05-23T22:03:34.447Z,100.00
2023-05-23T22:06:01.278Z,100.00
2023-05-23T22:08:31.798Z,100.00
2023-05-23T22:10:59.485Z,100.00
2023-05-23T22:13:27.351Z,100.00
2023-05-23T22:15:56.896Z,100.00
2023-05-23T22:18:27.672Z,100.00
2023-05-23T22:20:55.964Z,100.00
2023-05-23T22:23:23.178Z,100.00
2023-05-23T22:25:49.967Z,100.00
2023-05-23T22:28:19.011Z,100.00
2023-05-23T22:30:56.269Z,100.00
2023-05-23T22:33:22.997Z,100.00
2023-05-23T22:35:50.149Z,100.00
2023-05-23T22:38:22.555Z,100.00
2023-05-23T22:40:50.992Z,100.00
2023-05-23T22:43:21.699Z,100.00
2023-05-23T22:45:50.081Z,100.00
2023-05-23T22:48:22.285Z,100.00
2023-05-23T22:50:50.944Z,100.00
2023-05-23T22:53:17.946Z,100.00
2023-05-23T22:55:48.012Z,100.00
2023-05-23T22:58:14.964Z,100.00
2023-05-23T23:00:41.824Z,100.00
2023-05-23T23:03:08.961Z,100.00
2023-05-23T23:05:35.857Z,100.00
2023-05-23T23:08:24.689Z,100.00
2023-05-23T23:10:57.535Z,100.00
2023-05-23T23:13:24.418Z,100.00
2023-05-23T23:15:54.806Z,100.00
2023-05-23T23:18:22.005Z,100.00
2023-05-23T23:20:48.911Z,100.00
2023-05-23T23:23:15.791Z,100.00
2023-05-23T23:25:42.619Z,100.00
2023-05-23T23:28:11.877Z,100.00
2023-05-23T23:30:38.647Z,100.00
2023-05-23T23:33:11.062Z,100.00
2023-05-23T23:35:40.999Z,100.00
2023-05-23T23:38:14.468Z,100.00
2023-05-23T23:40:45.657Z,100.00
2023-05-23T23:43:13.952Z,100.00
2023-05-23T23:45:40.822Z,100.00
2023-05-23T23:48:26.789Z,100.00
2023-05-23T23:51:01.459Z,100.00
2023-05-23T23:53:28.108Z,100.00
2023-05-23T23:55:57.048Z,100.00
2023-05-23T23:58:23.733Z,100.00
